Time;durP1;ratioP1;P1;durP2;ratioP2;P2;SDS_P1;SDS_P2;PMS_P1;PMS_P2;Temp;Humidity;BMP_temperature;BMP_pressure;BME280_temperature;BME280_humidity;BME280_pressure;Samples;Min_cycle;Max_cycle;Signal;HPM_P1;HPM_P2
2022/09/11 00:00:21;;;;;;;7.28;1.10;;;;;;;26.07;48.25;98572.03;2093748;28;20079;-48
2022/09/11 00:01:23;;;;;;;6.13;1.88;;;;;;;26.08;48.17;98573.69;2092135;28;20051;-49
2022/09/11 00:02:23;;;;;;;4.38;1.50;;;;;;;26.08;48.37;98577.22;2095569;28;20089;-49
2022/09/11 00:03:26;;;;;;;6.43;1.50;;;;;;;26.10;48.79;98578.84;2096511;28;20461;-52
2022/09/11 00:04:27;;;;;;;5.90;1.15;;;;;;;26.12;48.56;98574.00;2095094;28;20104;-51
2022/09/11 00:05:30;;;;;;;7.40;1.40;;;;;;;26.07;48.51;98572.84;2097722;28;20106;-47
2022/09/11 00:06:30;;;;;;;4.22;1.33;;;;;;;26.08;48.38;98571.78;2095144;28;20111;-50
2022/09/11 00:07:34;;;;;;;3.92;1.75;;;;;;;26.07;48.63;98566.59;2096725;28;20295;-49
2022/09/11 00:08:36;;;;;;;3.22;1.42;;;;;;;26.05;48.34;98564.16;2096897;28;20170;-50
2022/09/11 00:09:37;;;;;;;5.47;1.67;;;;;;;26.06;48.19;98565.78;2094083;28;20522;-48
2022/09/11 00:10:41;;;;;;;7.53;2.03;;;;;;;26.09;48.70;98567.16;2093660;28;20097;-50
2022/09/11 00:11:43;;;;;;;7.75;1.52;;;;;;;26.07;48.58;98570.13;2095230;28;20052;-50
2022/09/11 00:12:44;;;;;;;5.10;1.23;;;;;;;26.08;48.26;98560.91;2093272;28;20048;-53
2022/09/11 00:13:47;;;;;;;5.05;1.55;;;;;;;26.07;48.64;98563.88;2094703;28;20693;-52
2022/09/11 00:14:50;;;;;;;3.08;1.13;;;;;;;26.08;48.22;98569.06;2095373;28;20059;-52
2022/09/11 00:15:52;;;;;;;7.95;1.73;;;;;;;26.08;48.38;98566.34;2088186;28;20048;-48
2022/09/11 00:16:52;;;;;;;7.55;1.75;;;;;;;26.06;48.65;98568.50;2092785;28;20606;-52
2022/09/11 00:17:55;;;;;;;6.07;2.03;;;;;;;26.10;48.59;98565.25;2092644;28;20048;-53
2022/09/11 00:18:58;;;;;;;4.63;1.70;;;;;;;26.10;48.50;98562.53;2092620;28;20049;-48
2022/09/11 00:20:00;;;;;;;5.80;1.80;;;;;;;26.08;48.29;98565.53;2092142;28;20488;-49
2022/09/11 00:21:03;;;;;;;4.82;1.98;;;;;;;26.07;48.69;98559.25;2093049;28;20052;-47
2022/09/11 00:22:04;;;;;;;4.13;1.08;;;;;;;26.06;48.45;98562.25;2094654;28;20131;-48
2022/09/11 00:23:07;;;;;;;5.72;1.63;;;;;;;26.07;48.21;98561.16;2095568;28;20892;-48
2022/09/11 00:24:09;;;;;;;6.40;1.95;;;;;;;26.07;48.17;98567.41;2091960;28;20105;-51
2022/09/11 00:25:10;;;;;;;2.25;0.98;;;;;;;26.08;48.13;98563.63;2096024;28;20054;-49
2022/09/11 00:26:12;;;;;;;6.13;1.17;;;;;;;26.06;48.63;98563.06;2095429;28;20732;-50
2022/09/11 00:27:14;;;;;;;10.57;1.48;;;;;;;26.07;48.38;98563.88;2096008;28;20106;-50
2022/09/11 00:28:18;;;;;;;4.70;1.58;;;;;;;26.07;48.41;98561.16;2096086;28;20044;-51
2022/09/11 00:29:20;;;;;;;3.95;1.52;;;;;;;26.06;48.30;98562.25;2091578;28;20044;-51
2022/09/11 00:30:21;;;;;;;5.00;2.15;;;;;;;26.07;48.19;98561.97;2095840;28;20093;-49
2022/09/11 00:31:26;;;;;;;5.13;1.25;;;;;;;26.06;48.70;98557.63;2090278;28;20062;-52
2022/09/11 00:32:27;;;;;;;6.32;1.90;;;;;;;26.05;48.55;98561.44;2091658;28;20048;-49
2022/09/11 00:33:29;;;;;;;6.90;1.70;;;;;;;26.06;48.75;98560.34;2094558;28;20119;-49
2022/09/11 00:34:30;;;;;;;9.75;1.65;;;;;;;26.05;48.76;98556.00;2092181;28;20125;-48
2022/09/11 00:35:32;;;;;;;6.00;1.60;;;;;;;26.05;48.63;98547.84;2094093;28;20056;-49
2022/09/11 00:36:34;;;;;;;3.65;1.60;;;;;;;26.06;48.32;98559.53;2093087;28;20753;-47
2022/09/11 00:37:36;;;;;;;7.97;1.83;;;;;;;26.07;48.13;98559.25;2094386;28;20049;-50
2022/09/11 00:38:38;;;;;;;5.80;1.70;;;;;;;26.05;48.75;98558.72;2091312;28;20059;-50
2022/09/11 00:39:41;;;;;;;3.40;0.85;;;;;;;26.05;48.24;98564.16;2094860;28;21711;-51
2022/09/11 00:40:46;;;;;;;6.35;2.00;;;;;;;26.04;48.25;98559.75;2093911;28;20048;-48
2022/09/11 00:41:48;;;;;;;8.15;1.42;;;;;;;26.03;48.63;98563.56;2094049;28;20051;-48
2022/09/11 00:42:51;;;;;;;8.82;2.63;;;;;;;26.03;48.61;98569.00;2094301;28;20052;-48
2022/09/11 00:43:56;;;;;;;6.38;1.48;;;;;;;26.03;48.34;98562.75;2093934;28;20143;-50
2022/09/11 00:45:05;;;;;;;4.80;1.63;;;;;;;26.01;48.68;98562.19;2096149;28;20044;-50
2022/09/11 00:46:07;;;;;;;8.95;1.58;;;;;;;26.03;48.39;98560.84;2091524;28;20052;-59
2022/09/11 00:47:08;;;;;;;7.10;1.42;;;;;;;26.03;48.44;98565.47;2092331;28;20063;-51
2022/09/11 00:48:14;;;;;;;8.18;1.90;;;;;;;26.00;48.31;98561.38;2092728;28;20569;-48
2022/09/11 00:49:21;;;;;;;5.10;1.05;;;;;;;26.01;48.78;98562.19;2093116;28;20729;-54
2022/09/11 00:50:26;;;;;;;3.45;1.33;;;;;;;26.00;48.64;98560.53;2084326;28;20055;-52
2022/09/11 00:51:32;;;;;;;5.57;1.35;;;;;;;26.00;48.64;98555.94;2085437;28;20045;-51
2022/09/11 00:52:40;;;;;;;2.97;1.75;;;;;;;26.03;48.79;98557.31;2086061;28;20055;-51
2022/09/11 00:53:43;;;;;;;6.65;1.17;;;;;;;26.00;48.64;98560.53;2083850;28;22227;-49
2022/09/11 00:54:49;;;;;;;8.10;1.90;;;;;;;26.01;48.76;98557.56;2086524;28;20083;-50
2022/09/11 00:55:55;;;;;;;5.15;1.20;;;;;;;26.03;48.49;98560.84;2083358;28;20048;-50
2022/09/11 00:57:00;;;;;;;10.45;2.28;;;;;;;26.01;48.34;98563.00;2085781;28;20458;-49
2022/09/11 00:58:05;;;;;;;5.60;1.23;;;;;;;26.00;48.71;98563.25;2085456;28;20064;-48
2022/09/11 00:59:07;;;;;;;4.28;1.00;;;;;;;26.00;48.61;98558.66;2084493;28;20067;-58
2022/09/11 01:00:11;;;;;;;6.97;1.38;;;;;;;26.02;48.75;98563.81;2086166;28;20101;-49
2022/09/11 01:01:13;;;;;;;5.30;1.20;;;;;;;26.01;48.33;98560.28;2083026;28;20721;-49
2022/09/11 01:02:18;;;;;;;4.45;1.50;;;;;;;26.02;48.42;98553.78;2087368;28;20511;-48
2022/09/11 01:03:20;;;;;;;5.25;1.73;;;;;;;26.03;48.65;98554.59;2084246;28;20052;-50
2022/09/11 01:04:22;;;;;;;9.00;1.90;;;;;;;26.04;48.66;98557.03;2088297;28;20340;-49
2022/09/11 01:05:26;;;;;;;4.68;1.13;;;;;;;26.04;48.13;98553.50;2085713;28;20102;-51
2022/09/11 01:06:27;;;;;;;2.33;1.02;;;;;;;26.03;48.57;98558.13;2085156;28;20057;-50
2022/09/11 01:07:30;;;;;;;4.82;1.20;;;;;;;26.05;48.38;98556.00;2084049;28;20052;-49
2022/09/11 01:08:30;;;;;;;5.68;1.30;;;;;;;26.01;48.27;98554.84;2086226;28;21063;-51
2022/09/11 01:09:34;;;;;;;7.05;1.73;;;;;;;26.03;48.72;98552.69;2084766;28;20875;-51
2022/09/11 01:10:39;;;;;;;9.38;1.63;;;;;;;26.04;48.40;98554.31;2085083;28;20053;-51
2022/09/11 01:11:50;;;;;;;5.45;1.52;;;;;;;26.00;48.74;98550.50;2085112;28;20048;-50
2022/09/11 01:13:01;;;;;;;3.92;1.60;;;;;;;25.98;48.81;98552.63;2085334;28;20049;-50
2022/09/11 01:14:15;;;;;;;6.68;1.98;;;;;;;25.97;48.55;98551.00;2083889;28;20859;-50
2022/09/11 01:15:24;;;;;;;10.30;2.13;;;;;;;25.96;48.49;98552.06;2091556;28;20105;-52
2022/09/11 01:16:32;;;;;;;2.95;1.48;;;;;;;25.99;48.59;98548.88;2082429;28;20059;-50
2022/09/11 01:17:42;;;;;;;2.78;1.60;;;;;;;25.98;48.54;98552.63;2087948;28;20089;-49
2022/09/11 01:18:53;;;;;;;6.00;1.73;;;;;;;25.98;48.91;98554.53;2093047;28;20154;-48
2022/09/11 01:20:17;;;;;;;3.78;1.30;;;;;;;25.93;48.91;98547.13;2093665;28;20149;-48
2022/09/11 01:21:39;;;;;;;7.57;1.70;;;;;;;25.92;48.64;98550.13;2092890;28;20097;-51
2022/09/11 01:23:16;;;;;;;3.47;1.05;;;;;;;25.92;48.58;98550.13;2091459;28;20048;-52
2022/09/11 01:24:47;;;;;;;4.70;1.17;;;;;;;25.93;48.59;98547.13;2077205;28;20139;-50
2022/09/11 01:26:17;;;;;;;6.47;1.77;;;;;;;25.94;49.07;98540.66;2095233;27;21279;-50
2022/09/11 01:27:40;;;;;;;5.63;1.67;;;;;;;25.90;48.78;98542.22;2093328;28;20048;-50
2022/09/11 01:28:46;;;;;;;8.13;2.53;;;;;;;25.94;48.81;98548.78;2094091;28;20055;-49
2022/09/11 01:29:54;;;;;;;8.82;2.78;;;;;;;25.96;48.50;98537.66;2092957;28;20044;-50
2022/09/11 01:31:01;;;;;;;5.53;1.60;;;;;;;25.97;48.50;98548.28;2092373;28;20056;-49
2022/09/11 01:32:07;;;;;;;4.97;1.25;;;;;;;25.96;48.75;98541.19;2095819;28;20064;-49
2022/09/11 01:33:16;;;;;;;5.00;1.50;;;;;;;25.95;48.64;98545.00;2094691;28;20122;-49
2022/09/11 01:34:21;;;;;;;2.08;1.85;;;;;;;25.96;49.06;98549.34;2095105;28;20127;-49
2022/09/11 01:35:34;;;;;;;4.68;1.88;;;;;;;25.97;48.85;98548.28;2094832;28;20051;-48
2022/09/11 01:36:43;;;;;;;4.82;1.48;;;;;;;25.96;48.89;98541.19;2095856;28;20049;-48
2022/09/11 01:37:52;;;;;;;6.70;1.70;;;;;;;25.97;48.83;98542.84;2096430;28;20095;-50
2022/09/11 01:38:58;;;;;;;4.50;1.55;;;;;;;25.99;49.02;98546.16;2093815;28;20048;-50
2022/09/11 01:40:04;;;;;;;5.28;2.40;;;;;;;25.98;48.83;98543.66;2093647;28;20048;-50
2022/09/11 01:41:10;;;;;;;3.83;1.27;;;;;;;25.99;48.94;98548.88;2093254;28;20040;-49
2022/09/11 01:42:13;;;;;;;3.00;0.93;;;;;;;26.01;48.79;98546.69;2092969;28;20048;-50
2022/09/11 01:43:21;;;;;;;6.55;1.38;;;;;;;26.01;48.53;98549.41;2093356;28;20063;-50
2022/09/11 01:44:26;;;;;;;2.10;1.02;;;;;;;26.03;48.96;98552.69;2093691;28;20105;-51
2022/09/11 01:45:30;;;;;;;3.78;1.65;;;;;;;26.02;48.52;98548.34;2091187;28;20044;-49
2022/09/11 01:46:35;;;;;;;7.45;1.38;;;;;;;26.03;48.58;98549.97;2090462;28;20049;-49
2022/09/11 01:47:38;;;;;;;3.33;1.25;;;;;;;26.05;48.80;98556.00;2090318;28;20083;-50
2022/09/11 01:48:43;;;;;;;4.25;1.40;;;;;;;26.05;48.46;98552.47;2094557;28;20692;-49
2022/09/11 01:49:49;;;;;;;5.32;1.13;;;;;;;26.06;48.61;98554.09;2092879;27;20067;-51
2022/09/11 01:50:52;;;;;;;3.13;0.90;;;;;;;26.05;48.73;98553.28;2094641;28;20072;-51
2022/09/11 01:51:59;;;;;;;4.97;1.52;;;;;;;26.06;48.62;98549.47;2094093;28;20138;-51
2022/09/11 01:53:03;;;;;;;6.85;1.95;;;;;;;26.05;48.91;98550.56;2093950;28;20055;-48
2022/09/11 01:54:10;;;;;;;4.32;1.10;;;;;;;26.05;48.93;98550.56;2091353;28;20086;-50
2022/09/11 01:55:17;;;;;;;6.25;1.13;;;;;;;26.06;48.46;98546.75;2092869;28;20044;-52
2022/09/11 01:56:24;;;;;;;7.45;2.08;;;;;;;26.03;49.04;98547.25;2091194;28;20400;-50
2022/09/11 01:57:30;;;;;;;5.10;1.35;;;;;;;26.02;48.96;98551.06;2094292;28;20661;-50
2022/09/11 01:58:35;;;;;;;10.45;1.55;;;;;;;26.02;48.66;98547.50;2094136;28;20056;-50
2022/09/11 01:59:42;;;;;;;6.53;1.58;;;;;;;26.03;48.67;98557.31;2093390;28;20536;-48
2022/09/11 02:00:48;;;;;;;5.82;1.50;;;;;;;26.02;48.81;98551.06;2093361;28;20048;-50
2022/09/11 02:01:57;;;;;;;3.28;1.25;;;;;;;26.03;48.73;98547.25;2089193;28;20044;-51
2022/09/11 02:03:04;;;;;;;4.93;1.17;;;;;;;26.03;49.07;98549.97;2092596;28;20045;-47
2022/09/11 02:04:09;;;;;;;4.70;1.63;;;;;;;26.04;48.78;98548.91;2090955;28;20052;-50
2022/09/11 02:05:16;;;;;;;3.28;2.03;;;;;;;26.05;48.88;98549.75;2090040;28;20059;-47
2022/09/11 02:06:21;;;;;;;5.30;1.45;;;;;;;26.05;48.68;98533.44;2085978;28;20070;-48
2022/09/11 02:07:29;;;;;;;2.20;1.10;;;;;;;26.05;48.76;98536.97;2091527;28;20058;-48
2022/09/11 02:08:38;;;;;;;2.40;1.33;;;;;;;26.05;49.01;98539.69;2092875;28;20056;-53
2022/09/11 02:09:46;;;;;;;3.00;1.10;;;;;;;26.07;49.07;98544.84;2089348;28;20044;-49
2022/09/11 02:10:53;;;;;;;4.60;1.30;;;;;;;26.08;49.00;98538.34;2092867;28;20607;-49
2022/09/11 02:11:58;;;;;;;2.97;1.10;;;;;;;26.07;48.69;98540.22;2092004;28;20047;-49
2022/09/11 02:13:06;;;;;;;13.65;1.30;;;;;;;26.06;49.05;98541.31;2092666;28;20090;-51
2022/09/11 02:14:17;;;;;;;3.63;1.73;;;;;;;26.06;48.53;98537.78;2092890;28;20062;-50
2022/09/11 02:15:18;;;;;;;4.20;1.10;;;;;;;26.06;48.97;98535.88;2092093;28;20141;-51
2022/09/11 02:16:27;;;;;;;2.88;1.33;;;;;;;26.07;48.77;98537.50;2088640;28;20071;-49
2022/09/11 02:17:36;;;;;;;3.22;1.08;;;;;;;26.05;48.91;98536.16;2086091;28;20167;-50
2022/09/11 02:18:43;;;;;;;4.82;1.38;;;;;;;26.06;48.52;98538.59;2089029;28;20752;-49
2022/09/11 02:19:44;;;;;;;8.20;1.77;;;;;;;26.08;48.92;98541.06;2091028;28;20498;-50
2022/09/11 02:20:46;;;;;;;2.85;1.17;;;;;;;26.08;49.09;98538.34;2091871;28;20122;-51
2022/09/11 02:21:49;;;;;;;3.33;1.15;;;;;;;26.07;48.58;98542.13;2092473;28;20076;-51
2022/09/11 02:22:52;;;;;;;3.78;1.42;;;;;;;26.08;49.13;98544.59;2091938;28;20040;-48
2022/09/11 02:23:54;;;;;;;5.63;1.45;;;;;;;26.10;48.46;98552.50;2093521;28;20056;-48
2022/09/11 02:24:56;;;;;;;4.68;1.83;;;;;;;26.08;48.70;98541.06;2090138;28;20613;-49
2022/09/11 02:25:56;;;;;;;3.50;1.23;;;;;;;26.09;48.89;98548.13;2091037;28;20409;-49
2022/09/11 02:27:03;;;;;;;4.43;1.30;;;;;;;26.09;48.67;98545.41;2092833;28;20055;-51
2022/09/11 02:28:03;;;;;;;5.18;1.70;;;;;;;26.10;48.73;98548.94;2091479;28;20629;-49
2022/09/11 02:29:06;;;;;;;4.55;1.40;;;;;;;26.10;48.52;98555.22;2090084;28;20044;-51
2022/09/11 02:30:10;;;;;;;6.82;1.67;;;;;;;26.09;48.95;98550.84;2090452;28;20098;-50
2022/09/11 02:31:12;;;;;;;4.15;1.00;;;;;;;26.08;48.97;98544.59;2093049;28;20048;-50
2022/09/11 02:32:13;;;;;;;1.85;0.98;;;;;;;26.10;48.65;98551.69;2092196;28;20059;-49
2022/09/11 02:33:30;;;;;;;7.22;1.55;;;;;;;26.06;48.77;98548.66;2092779;28;20060;-50
2022/09/11 02:34:33;;;;;;;4.85;1.30;;;;;;;26.05;49.05;98545.13;2092259;28;20082;-49
2022/09/11 02:35:44;;;;;;;5.30;2.72;;;;;;;26.05;48.80;98541.59;2093590;28;20055;-48
2022/09/11 02:37:02;;;;;;;3.88;1.55;;;;;;;26.04;48.77;98546.19;2091219;28;20812;-49
2022/09/11 02:38:13;;;;;;;4.03;1.77;;;;;;;26.05;48.71;98547.03;2093137;28;20159;-50
2022/09/11 02:39:25;;;;;;;5.15;1.65;;;;;;;26.04;48.97;98539.94;2093891;28;20661;-50
2022/09/11 02:40:42;;;;;;;6.10;1.85;;;;;;;26.03;48.82;98546.44;2092582;28;20044;-49
2022/09/11 02:41:57;;;;;;;5.22;1.75;;;;;;;26.02;49.04;98540.19;2085929;28;20892;-49
2022/09/11 02:43:17;;;;;;;5.28;1.05;;;;;;;26.03;48.75;98538.28;2088455;28;20102;-51
2022/09/11 02:44:31;;;;;;;4.45;1.52;;;;;;;26.01;48.81;98538.53;2088722;28;20136;-51
2022/09/11 02:45:44;;;;;;;4.80;1.20;;;;;;;26.03;49.17;98536.38;2093001;28;20048;-50
2022/09/11 02:47:04;;;;;;;3.47;1.20;;;;;;;26.00;48.74;98528.75;2089210;28;20052;-50
2022/09/11 02:48:20;;;;;;;4.45;1.40;;;;;;;26.02;48.65;98529.31;2091409;28;20048;-49
2022/09/11 02:49:29;;;;;;;3.67;1.42;;;;;;;26.02;48.78;98526.59;2090071;28;20052;-51
2022/09/11 02:50:39;;;;;;;3.58;1.35;;;;;;;26.05;48.92;98528.81;2092154;28;20052;-50
2022/09/11 02:51:50;;;;;;;3.85;1.50;;;;;;;26.06;48.60;98535.06;2090735;28;20049;-52
2022/09/11 02:53:00;;;;;;;4.45;1.38;;;;;;;26.05;48.80;98536.97;2093147;28;20696;-50
2022/09/11 02:54:11;;;;;;;4.68;1.20;;;;;;;26.05;48.70;98533.44;2092043;28;20052;-47
2022/09/11 02:55:21;;;;;;;6.60;1.27;;;;;;;26.03;48.73;98532.84;2094327;28;20054;-51
2022/09/11 02:56:30;;;;;;;3.38;1.38;;;;;;;26.03;48.66;98536.38;2092110;28;20052;-50
2022/09/11 02:57:37;;;;;;;5.63;1.70;;;;;;;26.04;48.73;98537.22;2093116;28;20082;-50
2022/09/11 02:58:49;;;;;;;4.43;2.00;;;;;;;26.04;48.89;98545.34;2091400;27;20085;-50
2022/09/11 02:59:53;;;;;;;2.88;1.30;;;;;;;26.05;48.70;98538.88;2091084;28;20052;-50
2022/09/11 03:00:57;;;;;;;8.45;2.13;;;;;;;26.05;48.53;98538.88;2092702;28;20060;-50
2022/09/11 03:02:00;;;;;;;3.50;0.82;;;;;;;26.04;48.73;98538.03;2086243;28;20587;-48
2022/09/11 03:03:02;;;;;;;6.07;1.67;;;;;;;26.07;48.93;98540.22;2090945;28;20072;-48
2022/09/11 03:04:03;;;;;;;4.18;1.45;;;;;;;26.06;48.62;98546.75;2093206;28;20052;-50
2022/09/11 03:05:05;;;;;;;6.32;1.33;;;;;;;26.08;48.60;98536.44;2092264;28;20049;-48
2022/09/11 03:06:10;;;;;;;3.35;0.90;;;;;;;26.08;48.90;98544.59;2092519;28;20044;-53
2022/09/11 03:07:11;;;;;;;2.05;0.95;;;;;;;26.08;49.05;98541.06;2093073;28;20041;-50
2022/09/11 03:08:15;;;;;;;6.47;1.30;;;;;;;26.07;48.98;98547.56;2092817;28;20048;-50
2022/09/11 03:09:18;;;;;;;4.43;1.67;;;;;;;26.06;48.84;98541.31;2092094;28;20044;-48
2022/09/11 03:10:20;;;;;;;4.07;1.48;;;;;;;26.07;48.81;98537.50;2092223;28;20084;-48
2022/09/11 03:11:20;;;;;;;2.25;0.88;;;;;;;26.06;49.00;98543.22;2093206;28;20727;-48
2022/09/11 03:12:22;;;;;;;3.03;1.25;;;;;;;26.04;48.55;98537.22;2091851;28;20088;-51
2022/09/11 03:13:23;;;;;;;5.22;1.83;;;;;;;26.06;48.79;98535.88;2093697;28;20063;-50
2022/09/11 03:14:25;;;;;;;5.68;1.88;;;;;;;26.01;48.72;98541.25;2092311;28;20655;-52
2022/09/11 03:15:26;;;;;;;2.33;0.85;;;;;;;26.01;49.11;98543.16;2094973;28;20132;-51
2022/09/11 03:16:29;;;;;;;5.20;1.33;;;;;;;26.05;48.48;98534.25;2092513;28;20056;-46
2022/09/11 03:17:30;;;;;;;5.75;1.58;;;;;;;26.00;48.60;98542.34;2088164;28;20067;-50
2022/09/11 03:18:32;;;;;;;8.38;1.98;;;;;;;26.04;48.77;98543.47;2089243;28;20885;-48
2022/09/11 03:19:32;;;;;;;2.83;1.10;;;;;;;26.05;48.80;98536.16;2089403;28;20090;-50
2022/09/11 03:20:34;;;;;;;5.10;1.40;;;;;;;26.06;49.02;98540.50;2092823;28;20059;-49
2022/09/11 03:21:35;;;;;;;4.82;1.95;;;;;;;26.03;48.50;98539.09;2093468;28;20068;-47
2022/09/11 03:22:38;;;;;;;3.78;1.23;;;;;;;26.05;49.09;98539.69;2092224;28;20458;-49
2022/09/11 03:23:39;;;;;;;5.50;1.38;;;;;;;26.03;49.19;98547.25;2090405;28;20090;-50
2022/09/11 03:24:41;;;;;;;3.90;1.55;;;;;;;25.98;48.96;98541.75;2093519;28;21417;-47
2022/09/11 03:25:42;;;;;;;5.70;1.00;;;;;;;25.97;48.75;98534.69;2095692;28;20060;-49
2022/09/11 03:26:44;;;;;;;6.45;1.38;;;;;;;25.99;48.88;98540.72;2093906;28;20144;-51
2022/09/11 03:27:44;;;;;;;5.40;1.25;;;;;;;25.99;48.70;98535.28;2093607;28;20079;-51
2022/09/11 03:28:46;;;;;;;4.40;1.73;;;;;;;26.00;48.67;98533.38;2094197;28;20051;-49
2022/09/11 03:29:47;;;;;;;4.95;1.20;;;;;;;25.96;48.96;98530.31;2095411;28;20051;-50
2022/09/11 03:30:49;;;;;;;5.60;1.63;;;;;;;25.98;49.10;98536.31;2093072;28;20075;-49
2022/09/11 03:31:51;;;;;;;4.88;1.95;;;;;;;25.99;49.12;98527.13;2094154;28;20703;-50
2022/09/11 03:32:53;;;;;;;1.90;0.98;;;;;;;25.97;48.73;98536.59;2091816;28;20599;-49
2022/09/11 03:33:54;;;;;;;6.68;1.30;;;;;;;25.98;48.82;98532.78;2095687;28;20880;-50
2022/09/11 03:34:56;;;;;;;4.10;1.05;;;;;;;25.98;49.18;98528.19;2095501;28;20055;-51
2022/09/11 03:35:56;;;;;;;6.95;1.25;;;;;;;25.97;48.85;98523.00;2094468;27;20063;-49
2022/09/11 03:36:59;;;;;;;5.93;1.92;;;;;;;25.97;49.16;98528.44;2094013;28;20480;-50
2022/09/11 03:37:59;;;;;;;2.03;1.08;;;;;;;26.00;49.04;98534.19;2095388;28;20048;-49
2022/09/11 03:39:02;;;;;;;3.05;1.00;;;;;;;26.01;48.76;98535.00;2094459;28;20202;-47
2022/09/11 03:40:03;;;;;;;3.67;1.33;;;;;;;26.02;48.87;98532.03;2094216;28;20048;-49
2022/09/11 03:41:05;;;;;;;3.53;1.40;;;;;;;26.03;48.71;98528.25;2094912;28;20064;-50
2022/09/11 03:42:06;;;;;;;4.35;1.60;;;;;;;26.04;48.61;98527.16;2095007;28;20044;-50
2022/09/11 03:43:08;;;;;;;6.32;1.52;;;;;;;26.03;48.89;98522.00;2095118;28;20466;-50
2022/09/11 03:44:11;;;;;;;4.60;1.50;;;;;;;26.05;48.62;98517.94;2092126;28;20611;-47
2022/09/11 03:45:14;;;;;;;1.88;0.98;;;;;;;26.06;48.64;98516.84;2095314;28;20492;-50
2022/09/11 03:46:16;;;;;;;2.30;1.17;;;;;;;26.04;48.71;98516.28;2093900;28;20071;-49
2022/09/11 03:47:21;;;;;;;5.78;1.10;;;;;;;26.03;49.05;98505.69;2093497;28;20048;-47
2022/09/11 03:48:24;;;;;;;4.55;1.33;;;;;;;26.03;49.02;98509.22;2092201;27;20056;-51
2022/09/11 03:49:25;;;;;;;7.00;1.52;;;;;;;26.05;48.65;98515.22;2092197;28;20066;-50
2022/09/11 03:50:26;;;;;;;6.68;1.65;;;;;;;26.03;48.83;98511.13;2094728;28;20606;-50
2022/09/11 03:51:30;;;;;;;3.70;1.98;;;;;;;26.02;48.86;98507.59;2083092;28;20112;-49
2022/09/11 03:52:31;;;;;;;5.70;1.30;;;;;;;26.02;49.18;98502.16;2093774;28;20068;-50
2022/09/11 03:53:34;;;;;;;4.15;1.55;;;;;;;26.03;48.73;98511.13;2094041;28;20052;-50
2022/09/11 03:54:35;;;;;;;2.88;0.90;;;;;;;26.03;48.63;98503.78;2091800;28;20143;-49
2022/09/11 03:55:36;;;;;;;7.00;2.55;;;;;;;26.03;48.87;98503.78;2091334;28;20052;-49
2022/09/11 03:56:37;;;;;;;4.60;0.98;;;;;;;26.01;48.76;98508.63;2093696;28;20056;-51
2022/09/11 03:57:39;;;;;;;5.43;1.73;;;;;;;26.04;49.13;98507.31;2091915;28;20339;-49
2022/09/11 03:58:40;;;;;;;3.00;1.20;;;;;;;26.04;48.66;98507.31;2092355;28;20063;-51
2022/09/11 03:59:41;;;;;;;5.43;1.75;;;;;;;26.02;48.81;98510.31;2094976;28;20490;-50
2022/09/11 04:00:42;;;;;;;5.22;1.45;;;;;;;26.01;48.81;98516.78;2095930;28;20048;-50
2022/09/11 04:01:44;;;;;;;4.65;0.93;;;;;;;26.02;48.71;98515.75;2097004;28;20407;-51
2022/09/11 04:02:46;;;;;;;6.07;1.20;;;;;;;26.04;49.16;98520.91;2090604;28;20068;-49
2022/09/11 04:03:48;;;;;;;4.75;0.90;;;;;;;26.02;48.70;98515.75;2091877;28;20590;-48
2022/09/11 04:04:49;;;;;;;6.03;0.93;;;;;;;26.04;48.96;98520.91;2092706;28;20048;-50
2022/09/11 04:05:59;;;;;;;3.60;1.33;;;;;;;26.04;49.11;98520.91;2093794;28;20162;-53
2022/09/11 04:07:00;;;;;;;4.03;1.45;;;;;;;26.03;48.89;98522.81;2093743;28;20145;-50
2022/09/11 04:08:02;;;;;;;3.45;1.17;;;;;;;26.02;49.23;98513.03;2093107;28;20052;-55
2022/09/11 04:09:03;;;;;;;5.03;1.13;;;;;;;26.01;48.88;98524.94;2091326;28;20086;-54
2022/09/11 04:10:05;;;;;;;4.30;1.33;;;;;;;26.02;48.81;98517.59;2090610;28;20800;-54
2022/09/11 04:11:07;;;;;;;4.05;1.55;;;;;;;26.02;48.78;98518.47;2093677;28;20040;-53
2022/09/11 04:12:10;;;;;;;6.32;1.25;;;;;;;26.02;49.10;98518.47;2089822;28;20080;-51
2022/09/11 04:13:10;;;;;;;4.30;1.40;;;;;;;26.02;49.24;98518.47;2096937;28;20125;-53
2022/09/11 04:14:12;;;;;;;1.55;0.75;;;;;;;26.03;48.71;98520.09;2091202;28;20586;-50
2022/09/11 04:15:13;;;;;;;4.22;1.25;;;;;;;26.05;48.91;98520.66;2092553;28;20756;-53
2022/09/11 04:16:17;;;;;;;4.00;1.30;;;;;;;26.04;49.25;98518.19;2092410;28;20044;-50
2022/09/11 04:17:18;;;;;;;3.30;0.90;;;;;;;26.02;49.10;98523.03;2092624;28;20051;-57
2022/09/11 04:18:21;;;;;;;4.25;1.17;;;;;;;26.02;49.19;98523.88;2091131;28;20052;-55
2022/09/11 04:19:23;;;;;;;7.45;1.73;;;;;;;25.98;48.74;98528.19;2094727;28;20059;-53
2022/09/11 04:20:24;;;;;;;5.20;1.55;;;;;;;26.01;48.74;98526.84;2092324;28;20113;-52
2022/09/11 04:21:26;;;;;;;3.20;1.40;;;;;;;25.99;48.75;98523.56;2095159;28;20055;-51
2022/09/11 04:22:27;;;;;;;2.25;1.00;;;;;;;26.01;49.08;98522.22;2084191;28;20919;-56
2022/09/11 04:23:29;;;;;;;4.65;1.80;;;;;;;26.02;48.70;98523.88;2093030;28;20063;-54
2022/09/11 04:24:29;;;;;;;3.78;1.05;;;;;;;26.03;48.66;98525.53;2091245;28;20071;-53
2022/09/11 04:25:31;;;;;;;5.25;2.10;;;;;;;26.02;48.63;98529.31;2094689;28;20131;-54
2022/09/11 04:26:32;;;;;;;4.57;1.58;;;;;;;26.01;49.12;98522.22;2091530;28;20404;-53
2022/09/11 04:27:34;;;;;;;4.78;0.80;;;;;;;26.03;48.77;98517.38;2094942;28;20056;-52
2022/09/11 04:28:35;;;;;;;5.35;1.85;;;;;;;26.01;49.05;98515.97;2092598;28;20052;-54
2022/09/11 04:29:37;;;;;;;5.18;0.98;;;;;;;26.00;48.57;98517.88;2096450;28;20051;-55
2022/09/11 04:30:38;;;;;;;3.83;1.20;;;;;;;26.02;48.86;98513.03;2095816;28;20052;-54
2022/09/11 04:31:40;;;;;;;4.85;1.58;;;;;;;26.03;48.80;98520.09;2087796;28;20048;-55
2022/09/11 04:32:40;;;;;;;3.08;0.77;;;;;;;26.02;48.78;98523.88;2093385;28;20097;-56
2022/09/11 04:33:44;;;;;;;4.22;1.50;;;;;;;26.04;48.63;98520.91;2094344;28;20596;-54
2022/09/11 04:34:44;;;;;;;4.78;1.20;;;;;;;26.03;48.87;98525.53;2095406;28;20055;-56
2022/09/11 04:35:46;;;;;;;4.47;1.45;;;;;;;26.03;48.65;98522.00;2094840;28;20052;-53
2022/09/11 04:36:47;;;;;;;3.78;1.20;;;;;;;26.03;48.81;98525.53;2095156;28;20051;-50
2022/09/11 04:37:49;;;;;;;3.40;1.67;;;;;;;26.04;48.64;98516.28;2092080;28;20056;-50
2022/09/11 04:38:54;;;;;;;3.60;1.20;;;;;;;26.02;48.75;98526.59;2093644;28;20409;-53
2022/09/11 04:39:55;;;;;;;5.65;1.63;;;;;;;26.03;48.88;98524.69;2093436;28;20706;-53
2022/09/11 04:40:59;;;;;;;3.95;0.93;;;;;;;26.04;49.22;98521.72;2091607;28;20052;-57
2022/09/11 04:42:03;;;;;;;3.70;1.95;;;;;;;26.02;48.88;98529.31;2085932;28;20117;-47
2022/09/11 04:43:05;;;;;;;3.35;0.98;;;;;;;26.02;49.03;98529.31;2094883;28;20090;-53
2022/09/11 04:44:06;;;;;;;2.67;1.17;;;;;;;26.03;49.10;98528.25;2086494;28;20061;-56
2022/09/11 04:45:08;;;;;;;2.92;1.70;;;;;;;26.01;48.84;98524.13;2094322;28;20105;-56
2022/09/11 04:46:12;;;;;;;6.50;1.17;;;;;;;26.01;48.79;98522.22;2093791;28;20099;-56
2022/09/11 04:47:13;;;;;;;2.55;1.00;;;;;;;26.00;49.19;98526.03;2093784;28;20920;-54
2022/09/11 04:48:14;;;;;;;2.25;0.73;;;;;;;26.01;49.00;98524.94;2092431;27;20059;-52
2022/09/11 04:49:16;;;;;;;2.97;0.98;;;;;;;26.02;49.11;98526.59;2091825;28;20618;-56
2022/09/11 04:50:18;;;;;;;3.95;1.20;;;;;;;26.00;48.97;98526.03;2092802;28;22748;-54
2022/09/11 04:51:21;;;;;;;4.18;1.10;;;;;;;26.02;49.27;98540.19;2094645;28;20467;-51
2022/09/11 04:52:24;;;;;;;4.40;1.23;;;;;;;26.01;49.36;98532.28;2094759;28;20053;-55
2022/09/11 04:53:24;;;;;;;2.78;1.05;;;;;;;26.00;48.80;98536.91;2092947;28;20079;-55
2022/09/11 04:54:26;;;;;;;4.78;0.93;;;;;;;26.01;48.82;98535.81;2094554;28;20451;-55
2022/09/11 04:55:27;;;;;;;5.22;1.92;;;;;;;26.02;48.81;98539.34;2096826;28;20715;-56
2022/09/11 04:56:30;;;;;;;3.63;0.95;;;;;;;26.00;49.39;98539.63;2093785;28;20041;-54
2022/09/11 04:57:31;;;;;;;6.30;1.20;;;;;;;26.01;48.96;98540.44;2096392;28;20060;-51
2022/09/11 04:58:33;;;;;;;5.40;0.90;;;;;;;26.01;49.00;98541.25;2096250;28;20181;-51
2022/09/11 04:59:34;;;;;;;2.90;1.02;;;;;;;26.01;48.82;98543.97;2093776;28;20056;-51
2022/09/11 05:00:36;;;;;;;5.05;2.15;;;;;;;25.97;48.73;98542.84;2094336;28;20087;-49
2022/09/11 05:01:37;;;;;;;1.88;1.02;;;;;;;25.95;49.25;98547.72;2090019;28;20055;-51
2022/09/11 05:02:39;;;;;;;3.20;1.85;;;;;;;25.98;49.21;98547.19;2093744;28;20959;-54
2022/09/11 05:03:42;;;;;;;2.35;1.10;;;;;;;25.97;48.83;98542.84;2094866;28;20051;-54